sensor_id;sensor_type;location;lat;lon;timestamp;P1;durP1;ratioP1;P2;durP2;ratioP2
22152;SDS011;11242;50.536;12.688;2024-03-23T00:54:21;12.82;;;8.32;;
22152;SDS011;11242;50.536;12.688;2024-03-23T00:56:47;10.57;;;8.20;;
22152;SDS011;11242;50.536;12.688;2024-03-23T00:59:12;13.23;;;8.75;;
22152;SDS011;11242;50.536;12.688;2024-03-23T01:01:38;13.65;;;8.95;;
22152;SDS011;11242;50.536;12.688;2024-03-23T01:04:04;12.68;;;9.60;;
22152;SDS011;11242;50.536;12.688;2024-03-23T01:06:30;12.55;;;8.75;;
22152;SDS011;11242;50.536;12.688;2024-03-23T01:08:55;17.55;;;10.00;;
22152;SDS011;11242;50.536;12.688;2024-03-23T01:11:21;12.77;;;9.65;;
22152;SDS011;11242;50.536;12.688;2024-03-23T01:13:46;12.05;;;9.55;;
22152;SDS011;11242;50.536;12.688;2024-03-23T01:16:12;14.95;;;9.40;;
22152;SDS011;11242;50.536;12.688;2024-03-23T01:18:37;15.88;;;10.60;;
22152;SDS011;11242;50.536;12.688;2024-03-23T01:21:03;13.95;;;10.20;;
22152;SDS011;11242;50.536;12.688;2024-03-23T01:23:29;15.00;;;10.10;;
22152;SDS011;11242;50.536;12.688;2024-03-23T01:25:54;14.30;;;10.50;;
22152;SDS011;11242;50.536;12.688;2024-03-23T01:28:20;18.13;;;11.05;;
22152;SDS011;11242;50.536;12.688;2024-03-23T01:30:46;17.40;;;11.02;;
22152;SDS011;11242;50.536;12.688;2024-03-23T01:33:12;16.60;;;11.38;;
22152;SDS011;11242;50.536;12.688;2024-03-23T01:35:38;17.55;;;12.15;;
22152;SDS011;11242;50.536;12.688;2024-03-23T01:38:03;16.30;;;12.35;;
22152;SDS011;11242;50.536;12.688;2024-03-23T01:40:29;16.23;;;11.60;;
22152;SDS011;11242;50.536;12.688;2024-03-23T01:43:03;17.77;;;11.88;;
22152;SDS011;11242;50.536;12.688;2024-03-23T01:45:33;18.55;;;11.75;;
22152;SDS011;11242;50.536;12.688;2024-03-23T01:47:59;17.95;;;12.32;;
22152;SDS011;11242;50.536;12.688;2024-03-23T01:50:25;15.80;;;11.40;;
22152;SDS011;11242;50.536;12.688;2024-03-23T01:52:52;20.48;;;11.98;;
22152;SDS011;11242;50.536;12.688;2024-03-23T01:55:18;15.57;;;12.48;;
22152;SDS011;11242;50.536;12.688;2024-03-23T01:57:44;15.38;;;10.07;;
22152;SDS011;11242;50.536;12.688;2024-03-23T02:00:10;13.90;;;11.82;;
22152;SDS011;11242;50.536;12.688;2024-03-23T02:02:43;18.75;;;12.07;;
22152;SDS011;11242;50.536;12.688;2024-03-23T02:05:10;17.08;;;11.43;;
22152;SDS011;11242;50.536;12.688;2024-03-23T02:07:37;17.10;;;11.93;;
22152;SDS011;11242;50.536;12.688;2024-03-23T02:10:06;17.73;;;11.90;;
22152;SDS011;11242;50.536;12.688;2024-03-23T02:12:32;17.52;;;11.23;;
22152;SDS011;11242;50.536;12.688;2024-03-23T02:14:58;18.92;;;11.55;;
22152;SDS011;11242;50.536;12.688;2024-03-23T02:17:24;16.00;;;11.32;;
22152;SDS011;11242;50.536;12.688;2024-03-23T02:19:50;17.08;;;11.30;;
22152;SDS011;11242;50.536;12.688;2024-03-23T02:22:15;15.25;;;11.38;;
22152;SDS011;11242;50.536;12.688;2024-03-23T02:24:41;16.50;;;11.70;;
22152;SDS011;11242;50.536;12.688;2024-03-23T02:27:07;14.85;;;11.48;;
22152;SDS011;11242;50.536;12.688;2024-03-23T02:29:32;13.10;;;10.82;;
22152;SDS011;11242;50.536;12.688;2024-03-23T02:31:58;15.77;;;11.65;;
22152;SDS011;11242;50.536;12.688;2024-03-23T02:34:24;14.60;;;10.68;;
22152;SDS011;11242;50.536;12.688;2024-03-23T02:36:49;17.15;;;12.43;;
22152;SDS011;11242;50.536;12.688;2024-03-23T02:39:15;20.15;;;11.15;;
22152;SDS011;11242;50.536;12.688;2024-03-23T02:41:40;15.90;;;11.30;;
22152;SDS011;11242;50.536;12.688;2024-03-23T02:44:06;17.08;;;11.68;;
22152;SDS011;11242;50.536;12.688;2024-03-23T02:46:32;18.80;;;12.60;;
22152;SDS011;11242;50.536;12.688;2024-03-23T02:48:57;16.58;;;12.57;;
22152;SDS011;11242;50.536;12.688;2024-03-23T02:51:23;19.38;;;13.07;;
22152;SDS011;11242;50.536;12.688;2024-03-23T02:53:48;14.07;;;11.63;;
22152;SDS011;11242;50.536;12.688;2024-03-23T02:56:14;17.75;;;12.95;;
22152;SDS011;11242;50.536;12.688;2024-03-23T02:58:42;18.05;;;12.32;;
22152;SDS011;11242;50.536;12.688;2024-03-23T03:01:08;20.70;;;12.82;;
22152;SDS011;11242;50.536;12.688;2024-03-23T03:03:33;21.20;;;12.60;;
22152;SDS011;11242;50.536;12.688;2024-03-23T03:05:59;17.95;;;14.25;;
22152;SDS011;11242;50.536;12.688;2024-03-23T03:08:24;17.38;;;13.00;;
22152;SDS011;11242;50.536;12.688;2024-03-23T03:10:50;17.77;;;13.48;;
22152;SDS011;11242;50.536;12.688;2024-03-23T03:13:16;17.60;;;12.35;;
22152;SDS011;11242;50.536;12.688;2024-03-23T03:15:42;18.35;;;13.20;;
22152;SDS011;11242;50.536;12.688;2024-03-23T03:18:09;18.67;;;12.90;;
22152;SDS011;11242;50.536;12.688;2024-03-23T03:20:38;19.25;;;12.68;;
22152;SDS011;11242;50.536;12.688;2024-03-23T03:23:04;17.73;;;13.18;;
22152;SDS011;11242;50.536;12.688;2024-03-23T03:25:30;19.73;;;13.85;;
22152;SDS011;11242;50.536;12.688;2024-03-23T03:27:56;20.13;;;13.55;;
22152;SDS011;11242;50.536;12.688;2024-03-23T03:30:21;22.08;;;14.85;;
22152;SDS011;11242;50.536;12.688;2024-03-23T03:32:47;18.77;;;12.98;;
22152;SDS011;11242;50.536;12.688;2024-03-23T03:35:12;21.38;;;14.77;;
22152;SDS011;11242;50.536;12.688;2024-03-23T03:37:38;19.75;;;13.88;;
22152;SDS011;11242;50.536;12.688;2024-03-23T03:40:03;20.60;;;14.20;;
22152;SDS011;11242;50.536;12.688;2024-03-23T03:42:29;20.05;;;14.18;;
22152;SDS011;11242;50.536;12.688;2024-03-23T03:44:55;17.15;;;13.38;;
22152;SDS011;11242;50.536;12.688;2024-03-23T03:47:20;19.90;;;14.30;;
22152;SDS011;11242;50.536;12.688;2024-03-23T03:49:47;20.13;;;13.20;;
22152;SDS011;11242;50.536;12.688;2024-03-23T03:52:12;21.83;;;14.40;;
22152;SDS011;11242;50.536;12.688;2024-03-23T03:54:38;19.10;;;14.15;;
22152;SDS011;11242;50.536;12.688;2024-03-23T03:57:03;16.65;;;12.90;;
22152;SDS011;11242;50.536;12.688;2024-03-23T03:59:29;21.67;;;13.77;;
22152;SDS011;11242;50.536;12.688;2024-03-23T04:01:54;19.27;;;13.55;;
22152;SDS011;11242;50.536;12.688;2024-03-23T04:04:20;19.95;;;14.10;;
22152;SDS011;11242;50.536;12.688;2024-03-23T04:06:47;19.75;;;13.48;;
22152;SDS011;11242;50.536;12.688;2024-03-23T04:09:13;16.23;;;12.30;;
22152;SDS011;11242;50.536;12.688;2024-03-23T04:11:38;20.70;;;12.98;;
22152;SDS011;11242;50.536;12.688;2024-03-23T04:14:04;16.75;;;12.82;;
22152;SDS011;11242;50.536;12.688;2024-03-23T04:16:29;19.48;;;12.93;;
22152;SDS011;11242;50.536;12.688;2024-03-23T04:18:58;15.27;;;12.07;;
22152;SDS011;11242;50.536;12.688;2024-03-23T04:21:24;14.20;;;11.20;;
22152;SDS011;11242;50.536;12.688;2024-03-23T04:23:49;16.48;;;11.00;;
22152;SDS011;11242;50.536;12.688;2024-03-23T04:26:15;17.67;;;12.50;;
22152;SDS011;11242;50.536;12.688;2024-03-23T04:28:40;16.00;;;12.18;;
22152;SDS011;11242;50.536;12.688;2024-03-23T04:31:06;20.00;;;13.00;;
22152;SDS011;11242;50.536;12.688;2024-03-23T04:33:32;17.83;;;12.15;;
22152;SDS011;11242;50.536;12.688;2024-03-23T04:35:57;18.75;;;11.70;;
22152;SDS011;11242;50.536;12.688;2024-03-23T04:38:23;18.77;;;10.63;;
22152;SDS011;11242;50.536;12.688;2024-03-23T04:40:58;14.30;;;10.85;;
22152;SDS011;11242;50.536;12.688;2024-03-23T04:43:24;13.60;;;10.52;;
22152;SDS011;11242;50.536;12.688;2024-03-23T04:45:51;14.23;;;10.88;;
22152;SDS011;11242;50.536;12.688;2024-03-23T04:48:19;13.82;;;10.13;;
22152;SDS011;11242;50.536;12.688;2024-03-23T04:50:45;14.48;;;11.05;;
22152;SDS011;11242;50.536;12.688;2024-03-23T04:53:12;14.50;;;10.18;;
22152;SDS011;11242;50.536;12.688;2024-03-23T04:55:38;12.95;;;9.82;;
22152;SDS011;11242;50.536;12.688;2024-03-23T04:58:03;12.98;;;9.73;;
22152;SDS011;11242;50.536;12.688;2024-03-23T05:00:29;13.27;;;10.40;;
22152;SDS011;11242;50.536;12.688;2024-03-23T05:02:54;12.60;;;9.20;;
22152;SDS011;11242;50.536;12.688;2024-03-23T05:05:20;14.13;;;9.73;;
22152;SDS011;11242;50.536;12.688;2024-03-23T05:07:45;11.93;;;9.65;;
22152;SDS011;11242;50.536;12.688;2024-03-23T05:10:11;13.10;;;8.95;;
22152;SDS011;11242;50.536;12.688;2024-03-23T05:12:38;10.65;;;8.38;;
22152;SDS011;11242;50.536;12.688;2024-03-23T05:15:04;10.13;;;8.43;;
22152;SDS011;11242;50.536;12.688;2024-03-23T05:17:31;11.95;;;9.23;;
22152;SDS011;11242;50.536;12.688;2024-03-23T05:19:57;13.27;;;8.60;;
22152;SDS011;11242;50.536;12.688;2024-03-23T05:22:23;12.68;;;9.57;;
22152;SDS011;11242;50.536;12.688;2024-03-23T05:24:48;16.88;;;10.25;;
22152;SDS011;11242;50.536;12.688;2024-03-23T05:27:14;17.38;;;10.48;;
22152;SDS011;11242;50.536;12.688;2024-03-23T05:29:40;18.90;;;13.80;;
22152;SDS011;11242;50.536;12.688;2024-03-23T05:32:05;16.42;;;12.15;;
22152;SDS011;11242;50.536;12.688;2024-03-23T05:34:31;15.20;;;12.05;;
22152;SDS011;11242;50.536;12.688;2024-03-23T05:36:56;14.98;;;11.98;;
22152;SDS011;11242;50.536;12.688;2024-03-23T05:39:22;15.82;;;12.07;;
22152;SDS011;11242;50.536;12.688;2024-03-23T05:41:48;16.98;;;11.63;;
22152;SDS011;11242;50.536;12.688;2024-03-23T05:44:14;15.00;;;10.45;;
22152;SDS011;11242;50.536;12.688;2024-03-23T05:46:40;15.73;;;11.15;;
22152;SDS011;11242;50.536;12.688;2024-03-23T05:49:06;13.50;;;10.43;;
22152;SDS011;11242;50.536;12.688;2024-03-23T05:51:31;15.93;;;11.80;;
22152;SDS011;11242;50.536;12.688;2024-03-23T05:53:58;17.77;;;11.80;;
22152;SDS011;11242;50.536;12.688;2024-03-23T05:56:23;16.90;;;13.35;;
22152;SDS011;11242;50.536;12.688;2024-03-23T05:58:50;17.15;;;12.63;;
22152;SDS011;11242;50.536;12.688;2024-03-23T06:01:16;17.02;;;13.50;;
22152;SDS011;11242;50.536;12.688;2024-03-23T06:03:42;19.70;;;14.75;;
22152;SDS011;11242;50.536;12.688;2024-03-23T06:06:09;21.45;;;15.93;;
22152;SDS011;11242;50.536;12.688;2024-03-23T06:08:36;23.83;;;16.15;;
22152;SDS011;11242;50.536;12.688;2024-03-23T06:11:02;20.83;;;14.93;;
22152;SDS011;11242;50.536;12.688;2024-03-23T06:13:28;21.77;;;15.82;;
22152;SDS011;11242;50.536;12.688;2024-03-23T06:15:55;17.63;;;14.35;;
22152;SDS011;11242;50.536;12.688;2024-03-23T06:18:21;20.23;;;14.57;;
22152;SDS011;11242;50.536;12.688;2024-03-23T06:20:46;16.98;;;13.68;;
22152;SDS011;11242;50.536;12.688;2024-03-23T06:23:12;16.25;;;12.70;;
22152;SDS011;11242;50.536;12.688;2024-03-23T06:25:38;14.43;;;12.20;;
22152;SDS011;11242;50.536;12.688;2024-03-23T06:28:04;14.65;;;11.20;;
22152;SDS011;11242;50.536;12.688;2024-03-23T06:30:29;13.65;;;10.65;;
22152;SDS011;11242;50.536;12.688;2024-03-23T06:32:57;13.50;;;10.68;;
22152;SDS011;11242;50.536;12.688;2024-03-23T06:35:22;13.93;;;9.65;;
22152;SDS011;11242;50.536;12.688;2024-03-23T06:37:48;10.68;;;8.85;;
22152;SDS011;11242;50.536;12.688;2024-03-23T06:40:14;11.02;;;8.93;;
22152;SDS011;11242;50.536;12.688;2024-03-23T06:42:39;10.02;;;7.60;;
22152;SDS011;11242;50.536;12.688;2024-03-23T06:45:05;10.40;;;8.13;;
22152;SDS011;11242;50.536;12.688;2024-03-23T06:47:31;13.02;;;10.50;;
22152;SDS011;11242;50.536;12.688;2024-03-23T06:49:57;11.73;;;9.30;;
22152;SDS011;11242;50.536;12.688;2024-03-23T06:52:24;9.00;;;7.65;;
22152;SDS011;11242;50.536;12.688;2024-03-23T06:54:49;8.20;;;7.38;;
22152;SDS011;11242;50.536;12.688;2024-03-23T06:57:15;9.43;;;7.82;;
22152;SDS011;11242;50.536;12.688;2024-03-23T06:59:40;11.32;;;8.32;;
22152;SDS011;11242;50.536;12.688;2024-03-23T07:02:06;10.82;;;9.63;;
22152;SDS011;11242;50.536;12.688;2024-03-23T07:04:34;10.00;;;8.48;;
22152;SDS011;11242;50.536;12.688;2024-03-23T07:07:00;9.45;;;8.45;;
22152;SDS011;11242;50.536;12.688;2024-03-23T07:09:27;9.73;;;7.70;;
22152;SDS011;11242;50.536;12.688;2024-03-23T07:11:56;11.70;;;8.98;;
22152;SDS011;11242;50.536;12.688;2024-03-23T07:14:22;11.70;;;9.27;;
22152;SDS011;11242;50.536;12.688;2024-03-23T07:16:48;11.23;;;8.90;;
22152;SDS011;11242;50.536;12.688;2024-03-23T07:19:14;10.43;;;8.60;;
22152;SDS011;11242;50.536;12.688;2024-03-23T07:21:43;16.55;;;13.18;;
22152;SDS011;11242;50.536;12.688;2024-03-23T07:24:09;13.38;;;11.98;;
22152;SDS011;11242;50.536;12.688;2024-03-23T07:26:35;14.70;;;11.63;;
22152;SDS011;11242;50.536;12.688;2024-03-23T07:29:01;10.88;;;8.90;;
22152;SDS011;11242;50.536;12.688;2024-03-23T07:31:27;11.50;;;9.00;;
22152;SDS011;11242;50.536;12.688;2024-03-23T07:33:52;10.55;;;9.45;;
22152;SDS011;11242;50.536;12.688;2024-03-23T07:36:19;11.43;;;9.77;;
22152;SDS011;11242;50.536;12.688;2024-03-23T07:38:44;12.63;;;10.07;;
22152;SDS011;11242;50.536;12.688;2024-03-23T07:41:19;11.05;;;9.52;;
22152;SDS011;11242;50.536;12.688;2024-03-23T07:43:46;10.85;;;8.98;;
22152;SDS011;11242;50.536;12.688;2024-03-23T07:46:12;11.05;;;9.65;;
22152;SDS011;11242;50.536;12.688;2024-03-23T07:48:38;11.88;;;8.77;;
22152;SDS011;11242;50.536;12.688;2024-03-23T07:51:17;10.80;;;9.07;;
22152;SDS011;11242;50.536;12.688;2024-03-23T07:53:46;13.52;;;9.65;;
22152;SDS011;11242;50.536;12.688;2024-03-23T07:56:13;14.65;;;11.10;;
22152;SDS011;11242;50.536;12.688;2024-03-23T07:58:43;17.85;;;15.35;;
22152;SDS011;11242;50.536;12.688;2024-03-23T08:01:10;15.75;;;11.35;;
22152;SDS011;11242;50.536;12.688;2024-03-23T08:03:38;13.65;;;11.13;;
22152;SDS011;11242;50.536;12.688;2024-03-23T08:06:11;16.45;;;11.05;;
22152;SDS011;11242;50.536;12.688;2024-03-23T08:08:41;15.52;;;13.23;;
22152;SDS011;11242;50.536;12.688;2024-03-23T08:11:08;16.55;;;11.75;;
22152;SDS011;11242;50.536;12.688;2024-03-23T08:13:33;15.88;;;12.10;;
22152;SDS011;11242;50.536;12.688;2024-03-23T08:16:00;15.68;;;12.10;;
22152;SDS011;11242;50.536;12.688;2024-03-23T08:18:27;18.80;;;12.18;;
22152;SDS011;11242;50.536;12.688;2024-03-23T08:20:56;28.33;;;23.60;;
22152;SDS011;11242;50.536;12.688;2024-03-23T08:23:26;18.45;;;13.00;;
22152;SDS011;11242;50.536;12.688;2024-03-23T08:25:57;17.48;;;13.00;;
22152;SDS011;11242;50.536;12.688;2024-03-23T08:28:23;15.25;;;11.98;;
22152;SDS011;11242;50.536;12.688;2024-03-23T08:30:49;16.83;;;12.70;;
22152;SDS011;11242;50.536;12.688;2024-03-23T08:33:15;53.13;;;32.55;;
22152;SDS011;11242;50.536;12.688;2024-03-23T08:35:41;20.60;;;15.93;;
22152;SDS011;11242;50.536;12.688;2024-03-23T08:38:06;15.90;;;12.93;;
22152;SDS011;11242;50.536;12.688;2024-03-23T08:40:32;14.63;;;12.02;;
22152;SDS011;11242;50.536;12.688;2024-03-23T08:42:58;17.17;;;12.23;;
22152;SDS011;11242;50.536;12.688;2024-03-23T08:45:26;15.00;;;12.75;;
22152;SDS011;11242;50.536;12.688;2024-03-23T08:47:52;16.30;;;12.85;;
22152;SDS011;11242;50.536;12.688;2024-03-23T08:50:17;21.58;;;14.88;;
22152;SDS011;11242;50.536;12.688;2024-03-23T08:52:44;15.07;;;12.18;;
22152;SDS011;11242;50.536;12.688;2024-03-23T08:55:09;15.00;;;11.48;;
22152;SDS011;11242;50.536;12.688;2024-03-23T08:57:35;13.15;;;10.82;;
22152;SDS011;11242;50.536;12.688;2024-03-23T09:00:01;14.95;;;10.98;;
22152;SDS011;11242;50.536;12.688;2024-03-23T09:02:27;14.73;;;11.75;;
22152;SDS011;11242;50.536;12.688;2024-03-23T09:04:53;16.33;;;13.23;;
22152;SDS011;11242;50.536;12.688;2024-03-23T09:07:18;16.38;;;12.45;;
22152;SDS011;11242;50.536;12.688;2024-03-23T09:09:44;18.30;;;12.98;;
22152;SDS011;11242;50.536;12.688;2024-03-23T09:12:09;18.35;;;12.32;;
22152;SDS011;11242;50.536;12.688;2024-03-23T09:14:35;16.00;;;11.82;;
22152;SDS011;11242;50.536;12.688;2024-03-23T09:17:00;14.65;;;12.10;;
22152;SDS011;11242;50.536;12.688;2024-03-23T09:19:29;18.13;;;13.82;;
22152;SDS011;11242;50.536;12.688;2024-03-23T09:21:55;13.95;;;11.43;;
22152;SDS011;11242;50.536;12.688;2024-03-23T09:24:20;13.23;;;8.05;;
22152;SDS011;11242;50.536;12.688;2024-03-23T09:26:46;9.88;;;7.05;;
22152;SDS011;11242;50.536;12.688;2024-03-23T09:29:12;10.18;;;8.55;;
22152;SDS011;11242;50.536;12.688;2024-03-23T09:31:38;12.07;;;9.32;;
22152;SDS011;11242;50.536;12.688;2024-03-23T09:34:04;16.33;;;8.60;;
22152;SDS011;11242;50.536;12.688;2024-03-23T09:36:30;6.63;;;5.25;;
22152;SDS011;11242;50.536;12.688;2024-03-23T09:38:55;7.22;;;5.35;;
22152;SDS011;11242;50.536;12.688;2024-03-23T09:41:21;6.10;;;5.03;;
22152;SDS011;11242;50.536;12.688;2024-03-23T09:43:46;6.15;;;5.20;;
22152;SDS011;11242;50.536;12.688;2024-03-23T09:46:13;6.75;;;5.28;;
22152;SDS011;11242;50.536;12.688;2024-03-23T09:48:39;6.97;;;5.40;;
22152;SDS011;11242;50.536;12.688;2024-03-23T09:51:06;7.07;;;5.32;;
22152;SDS011;11242;50.536;12.688;2024-03-23T09:53:33;5.97;;;4.80;;
22152;SDS011;11242;50.536;12.688;2024-03-23T09:55:59;8.45;;;6.07;;
22152;SDS011;11242;50.536;12.688;2024-03-23T09:58:25;8.80;;;5.93;;
22152;SDS011;11242;50.536;12.688;2024-03-23T10:00:50;6.45;;;4.97;;
22152;SDS011;11242;50.536;12.688;2024-03-23T10:03:16;8.63;;;5.90;;
22152;SDS011;11242;50.536;12.688;2024-03-23T10:05:41;10.88;;;7.15;;
22152;SDS011;11242;50.536;12.688;2024-03-23T10:10:39;4.47;;;3.47;;
22152;SDS011;11242;50.536;12.688;2024-03-23T10:13:05;5.22;;;4.10;;
22152;SDS011;11242;50.536;12.688;2024-03-23T10:15:30;5.68;;;4.03;;
22152;SDS011;11242;50.536;12.688;2024-03-23T10:18:00;6.30;;;5.07;;
22152;SDS011;11242;50.536;12.688;2024-03-23T10:20:43;4.28;;;3.88;;
22152;SDS011;11242;50.536;12.688;2024-03-23T10:23:16;7.30;;;5.18;;
22152;SDS011;11242;50.536;12.688;2024-03-23T10:25:42;4.45;;;3.38;;
22152;SDS011;11242;50.536;12.688;2024-03-23T10:28:08;5.75;;;4.30;;
22152;SDS011;11242;50.536;12.688;2024-03-23T10:30:34;2.92;;;2.30;;
22152;SDS011;11242;50.536;12.688;2024-03-23T10:33:12;3.97;;;3.47;;
22152;SDS011;11242;50.536;12.688;2024-03-23T10:35:38;4.07;;;3.63;;
22152;SDS011;11242;50.536;12.688;2024-03-23T10:38:07;3.00;;;2.70;;
22152;SDS011;11242;50.536;12.688;2024-03-23T10:40:36;4.90;;;4.13;;
22152;SDS011;11242;50.536;12.688;2024-03-23T10:43:04;5.10;;;4.53;;
22152;SDS011;11242;50.536;12.688;2024-03-23T10:45:33;8.75;;;7.85;;
22152;SDS011;11242;50.536;12.688;2024-03-23T10:47:58;6.05;;;4.93;;
22152;SDS011;11242;50.536;12.688;2024-03-23T10:50:24;5.20;;;4.70;;
22152;SDS011;11242;50.536;12.688;2024-03-23T10:52:50;3.00;;;2.70;;
22152;SDS011;11242;50.536;12.688;2024-03-23T10:55:18;2.90;;;2.60;;
22152;SDS011;11242;50.536;12.688;2024-03-23T10:57:48;1.70;;;1.58;;
22152;SDS011;11242;50.536;12.688;2024-03-23T11:00:16;4.13;;;2.97;;
22152;SDS011;11242;50.536;12.688;2024-03-23T11:02:42;2.92;;;2.17;;
22152;SDS011;11242;50.536;12.688;2024-03-23T11:05:27;1.40;;;1.30;;
22152;SDS011;11242;50.536;12.688;2024-03-23T11:07:56;1.60;;;1.50;;
22152;SDS011;11242;50.536;12.688;2024-03-23T11:10:25;1.83;;;1.67;;
22152;SDS011;11242;50.536;12.688;2024-03-23T11:12:54;5.82;;;4.22;;
22152;SDS011;11242;50.536;12.688;2024-03-23T11:15:19;3.35;;;3.05;;
22152;SDS011;11242;50.536;12.688;2024-03-23T11:18:04;3.25;;;2.80;;
22152;SDS011;11242;50.536;12.688;2024-03-23T11:20:33;2.60;;;1.90;;
22152;SDS011;11242;50.536;12.688;2024-03-23T11:23:01;2.00;;;1.90;;
22152;SDS011;11242;50.536;12.688;2024-03-23T11:25:28;4.70;;;4.30;;
22152;SDS011;11242;50.536;12.688;2024-03-23T11:27:55;2.60;;;2.40;;
22152;SDS011;11242;50.536;12.688;2024-03-23T11:30:39;4.78;;;3.22;;
22152;SDS011;11242;50.536;12.688;2024-03-23T11:33:05;2.65;;;2.28;;
22152;SDS011;11242;50.536;12.688;2024-03-23T11:35:31;2.10;;;1.90;;
22152;SDS011;11242;50.536;12.688;2024-03-23T11:38:08;3.25;;;2.95;;
22152;SDS011;11242;50.536;12.688;2024-03-23T11:40:35;1.90;;;1.80;;
22152;SDS011;11242;50.536;12.688;2024-03-23T11:43:03;2.03;;;1.92;;
22152;SDS011;11242;50.536;12.688;2024-03-23T11:45:41;2.10;;;1.90;;
22152;SDS011;11242;50.536;12.688;2024-03-23T11:48:15;2.30;;;2.10;;
22152;SDS011;11242;50.536;12.688;2024-03-23T11:50:44;2.95;;;1.73;;
22152;SDS011;11242;50.536;12.688;2024-03-23T11:55:55;2.72;;;2.45;;
22152;SDS011;11242;50.536;12.688;2024-03-23T11:58:23;3.90;;;2.60;;
22152;SDS011;11242;50.536;12.688;2024-03-23T12:00:51;1.85;;;1.73;;
22152;SDS011;11242;50.536;12.688;2024-03-23T12:03:30;2.08;;;1.85;;
22152;SDS011;11242;50.536;12.688;2024-03-23T12:06:01;3.85;;;2.30;;
22152;SDS011;11242;50.536;12.688;2024-03-23T12:08:31;3.10;;;2.80;;
22152;SDS011;11242;50.536;12.688;2024-03-23T12:13:30;4.88;;;2.75;;
22152;SDS011;11242;50.536;12.688;2024-03-23T12:16:08;2.90;;;2.15;;
22152;SDS011;11242;50.536;12.688;2024-03-23T12:18:34;2.42;;;2.22;;
22152;SDS011;11242;50.536;12.688;2024-03-23T12:20:59;2.67;;;2.20;;
22152;SDS011;11242;50.536;12.688;2024-03-23T12:23:25;4.25;;;2.50;;
22152;SDS011;11242;50.536;12.688;2024-03-23T12:25:50;4.32;;;2.42;;
22152;SDS011;11242;50.536;12.688;2024-03-23T12:28:16;5.25;;;2.35;;
22152;SDS011;11242;50.536;12.688;2024-03-23T12:30:42;4.13;;;2.20;;
22152;SDS011;11242;50.536;12.688;2024-03-23T12:33:07;5.00;;;2.60;;
22152;SDS011;11242;50.536;12.688;2024-03-23T12:35:33;7.05;;;3.15;;
22152;SDS011;11242;50.536;12.688;2024-03-23T12:37:59;2.72;;;2.20;;
22152;SDS011;11242;50.536;12.688;2024-03-23T12:40:25;5.22;;;2.67;;
22152;SDS011;11242;50.536;12.688;2024-03-23T12:42:52;6.30;;;3.53;;
22152;SDS011;11242;50.536;12.688;2024-03-23T12:45:18;5.28;;;2.92;;
22152;SDS011;11242;50.536;12.688;2024-03-23T12:47:43;7.22;;;3.72;;
22152;SDS011;11242;50.536;12.688;2024-03-23T12:50:09;5.07;;;3.10;;
22152;SDS011;11242;50.536;12.688;2024-03-23T12:52:35;5.63;;;3.00;;
22152;SDS011;11242;50.536;12.688;2024-03-23T12:55:01;4.47;;;2.88;;
22152;SDS011;11242;50.536;12.688;2024-03-23T12:57:28;7.63;;;3.22;;
22152;SDS011;11242;50.536;12.688;2024-03-23T12:59:54;6.78;;;2.88;;
22152;SDS011;11242;50.536;12.688;2024-03-23T13:02:20;8.65;;;3.95;;
22152;SDS011;11242;50.536;12.688;2024-03-23T13:04:52;9.75;;;3.85;;
22152;SDS011;11242;50.536;12.688;2024-03-23T13:09:44;7.88;;;3.58;;
22152;SDS011;11242;50.536;12.688;2024-03-23T13:12:10;8.73;;;3.40;;
22152;SDS011;11242;50.536;12.688;2024-03-23T13:14:39;7.13;;;3.33;;
22152;SDS011;11242;50.536;12.688;2024-03-23T13:17:05;7.65;;;3.97;;
22152;SDS011;11242;50.536;12.688;2024-03-23T13:19:31;6.35;;;3.70;;
22152;SDS011;11242;50.536;12.688;2024-03-23T13:21:58;10.30;;;4.60;;
22152;SDS011;11242;50.536;12.688;2024-03-23T13:24:24;6.55;;;3.83;;
22152;SDS011;11242;50.536;12.688;2024-03-23T13:26:50;10.98;;;4.45;;
22152;SDS011;11242;50.536;12.688;2024-03-23T13:29:17;7.22;;;3.53;;
22152;SDS011;11242;50.536;12.688;2024-03-23T13:31:42;8.23;;;3.60;;
22152;SDS011;11242;50.536;12.688;2024-03-23T13:34:08;7.82;;;3.85;;
22152;SDS011;11242;50.536;12.688;2024-03-23T13:36:33;7.78;;;3.35;;
22152;SDS011;11242;50.536;12.688;2024-03-23T13:39:00;9.75;;;4.50;;
22152;SDS011;11242;50.536;12.688;2024-03-23T13:41:27;14.90;;;8.20;;
22152;SDS011;11242;50.536;12.688;2024-03-23T13:43:53;10.18;;;5.03;;
22152;SDS011;11242;50.536;12.688;2024-03-23T13:46:18;7.53;;;3.50;;
22152;SDS011;11242;50.536;12.688;2024-03-23T13:48:44;8.23;;;3.97;;
22152;SDS011;11242;50.536;12.688;2024-03-23T13:51:09;7.53;;;4.07;;
22152;SDS011;11242;50.536;12.688;2024-03-23T13:53:35;8.60;;;4.00;;
22152;SDS011;11242;50.536;12.688;2024-03-23T13:56:00;6.53;;;4.10;;
22152;SDS011;11242;50.536;12.688;2024-03-23T13:58:26;15.88;;;6.97;;
22152;SDS011;11242;50.536;12.688;2024-03-23T14:00:52;9.55;;;4.45;;
22152;SDS011;11242;50.536;12.688;2024-03-23T14:03:17;9.85;;;5.20;;
22152;SDS011;11242;50.536;12.688;2024-03-23T14:05:43;7.90;;;4.32;;
22152;SDS011;11242;50.536;12.688;2024-03-23T14:08:09;11.77;;;5.47;;
22152;SDS011;11242;50.536;12.688;2024-03-23T14:10:36;9.63;;;4.53;;
22152;SDS011;11242;50.536;12.688;2024-03-23T14:13:05;8.43;;;4.10;;
22152;SDS011;11242;50.536;12.688;2024-03-23T14:15:30;12.00;;;6.07;;
22152;SDS011;11242;50.536;12.688;2024-03-23T14:17:56;12.00;;;6.57;;
22152;SDS011;11242;50.536;12.688;2024-03-23T14:20:22;9.88;;;5.68;;
22152;SDS011;11242;50.536;12.688;2024-03-23T14:22:48;7.55;;;4.68;;
22152;SDS011;11242;50.536;12.688;2024-03-23T14:25:14;8.55;;;4.72;;
22152;SDS011;11242;50.536;12.688;2024-03-23T14:27:40;9.00;;;4.85;;
22152;SDS011;11242;50.536;12.688;2024-03-23T14:30:06;12.05;;;7.05;;
22152;SDS011;11242;50.536;12.688;2024-03-23T14:32:32;8.98;;;4.38;;
22152;SDS011;11242;50.536;12.688;2024-03-23T14:35:02;9.63;;;4.55;;
22152;SDS011;11242;50.536;12.688;2024-03-23T14:37:28;9.23;;;3.90;;
22152;SDS011;11242;50.536;12.688;2024-03-23T14:39:57;9.18;;;6.20;;
22152;SDS011;11242;50.536;12.688;2024-03-23T14:42:23;5.85;;;3.25;;
22152;SDS011;11242;50.536;12.688;2024-03-23T14:44:49;4.95;;;2.97;;
22152;SDS011;11242;50.536;12.688;2024-03-23T14:47:15;4.95;;;3.00;;
22152;SDS011;11242;50.536;12.688;2024-03-23T14:49:42;11.18;;;5.05;;
22152;SDS011;11242;50.536;12.688;2024-03-23T14:52:12;4.40;;;2.95;;
22152;SDS011;11242;50.536;12.688;2024-03-23T14:54:41;4.43;;;2.70;;
22152;SDS011;11242;50.536;12.688;2024-03-23T14:57:06;9.48;;;4.65;;
22152;SDS011;11242;50.536;12.688;2024-03-23T14:59:34;6.15;;;2.78;;
22152;SDS011;11242;50.536;12.688;2024-03-23T15:01:59;5.82;;;3.13;;
22152;SDS011;11242;50.536;12.688;2024-03-23T15:04:25;3.42;;;3.00;;
22152;SDS011;11242;50.536;12.688;2024-03-23T15:06:51;4.30;;;2.60;;
22152;SDS011;11242;50.536;12.688;2024-03-23T15:09:16;5.22;;;3.13;;
22152;SDS011;11242;50.536;12.688;2024-03-23T15:11:43;5.05;;;2.53;;
22152;SDS011;11242;50.536;12.688;2024-03-23T15:14:08;28.48;;;13.70;;
22152;SDS011;11242;50.536;12.688;2024-03-23T15:16:35;5.32;;;2.22;;
22152;SDS011;11242;50.536;12.688;2024-03-23T15:19:01;4.28;;;2.20;;
22152;SDS011;11242;50.536;12.688;2024-03-23T15:21:27;6.38;;;3.75;;